Event Mercenaries, Inc.

2016 Lead the Way 5K

Overall Finish List

June 05, 2016


Results by Event Mercenaries, Inc.

5K RUN

Place Name City Bib No Age Gender Age Group Total Time Pace
1 Daniel Averett Black Mountain NC 510 13 M 1 1-19 22:31.5 7:14/M
2 Sirar Snider Black Mountain NC 609 9 M 2 1-19 24:06.0 7:45/M
3 Mark Wells Black Mountain NC 617 50 M 1 OPEN 24:53.4 8:00/M
4 Chamberland Andersen Black Mountain NC 505 9 M 3 1-19 24:59.4 8:02/M
5 Maura Thompson Asheville NC 612 27 F 1 OPEN 25:18.6 8:08/M
6 Max Brownlee Black Mountain NC 521 10 M 4 1-19 25:36.4 8:14/M
7 Ann Marie Hammond Black Mountain NC 555 32 F 2 OPEN 25:41.8 8:15/M
8 Caden Mobley Black Mountain NC 582 8 M 5 1-19 26:43.2 8:35/M
9 Colton Lundsford Black Mountain NC 577 9 M 6 1-19 26:46.3 8:36/M
10 Jacob Bartman Black Mountain NC 512 9 M 7 1-19 26:48.6 8:37/M
11 Kris Bartman Black Mountain NC 513 40 M 2 OPEN 26:49.8 8:37/M
12 Tripp Anderson Black Mountain NC 507 43 M 3 OPEN 26:50.4 8:38/M
13 David Taylor Black Mountain NC 611 39 M 1 30-39 26:57.3 8:40/M
14 Beck Brunner Black Mountain NC 524 42 F 3 OPEN 27:27.0 8:50/M
15 Mylo Morgan Black Mountain NC 586 9 M 8 1-19 27:40.4 8:54/M
16 Wyatt Brownlee Black Mountain NC 522 7 M 9 1-19 27:40.9 8:54/M
17 Zach Brownlee Black Mountain NC 523 43 M 1 40-49 27:41.5 8:54/M
18 Rachel Averett Black Mountain NC 511 40 F 1 40-49 28:13.7 9:04/M
19 Tyler Scouten Black Mountain NC 605 8 M 10 1-19 29:39.3 9:32/M
20 Paul Scouten Black Mountain NC 604 46 M 2 40-49 29:42.9 9:33/M
21 Celese Mobley Black Mountain NC 583 11 F 1 1-19 29:51.1 9:36/M
22 Grace Vale Black Mountain NC 614 9 F 2 1-19 30:26.0 9:47/M
23 Haleigh Kamer Black Mountain NC 570 9 F 3 1-19 30:46.2 9:54/M
24 Cadence Andersen Black Mountain NC 264 6 M 11 1-19 30:50.8 9:55/M
25 Tex Mobley Black Mountain NC 585 31 M 2 30-39 31:09.2 10:01/M
26 Jennifer Mobley Black Mountain NC 584 31 F 1 30-39 31:19.4 10:04/M
27 Carly Hancock Black Mountain NC 556 11 F 4 1-19 31:42.7 10:12/M
28 Tiffany Hancock Black Mountain NC 559 42 F 2 40-49 31:44.9 10:12/M
29 Jack Wesley Burk Black Mountain NC 528 9 M 12 1-19 33:04.7 10:38/M
30 Jason Burk Black Mountain NC 529 40 M 3 40-49 33:08.4 10:39/M
31 Liam Feste Black Mountain NC 545 9 M 13 1-19 33:18.8 10:42/M
32 Caroline Clark Swannanoa NC 532 25 F 1 20-29 33:21.4 10:43/M
33 Spencer Clark Swannanoa NC 533 26 M 1 20-29 33:23.8 10:44/M
34 John Melton Green Mountain NC 581 29 M 2 20-29 33:29.0 10:46/M
35 Boone Ferguson Asheville NC 542 6 M 14 1-19 35:15.4 11:20/M
36 Oakley McAllister Black Mountain NC 578 6 M 15 1-19 35:20.3 11:22/M
37 Aimee Feste Black Mountain NC 544 40 F 3 40-49 35:24.1 11:23/M
38 Sonya Boone Black Mountain NC 624 37 F 2 30-39 35:59.2 11:34/M
39 Walker Ferguson Asheville NC 543 36 M 3 30-39 36:36.8 11:46/M
40 Jordan Robertson Swannanoa NC 597 8 F 5 1-19 36:53.1 11:52/M
41 Doug Robertson Swannanoa NC 596 46 M 4 40-49 36:55.3 11:52/M
42 Kristin Justus Fletcher NC 622 29 F 2 20-29 37:06.7 11:56/M
43 Terri Justus Swannanoa NC 569 62 F 1 60-99 37:08.8 11:56/M
44 Caden Little Black Mountain NC 575 8 M 16 1-19 37:50.4 12:10/M
45 Danny Little Black Mountain NC 576 44 M 5 40-49 37:52.1 12:11/M
46 Tegan Allison Black Mountain NC 503 11 F 6 1-19 38:29.6 12:22/M
47 Elias Lang Black Mountain NC 574 9 M 17 1-19 38:33.3 12:24/M
48 Luke Hall Swannanoa NC 619 9 M 18 1-19 38:37.8 12:25/M
49 Kevin Hall Swannanoa NC 620 41 M 6 40-49 38:41.2 12:26/M
50 Kaylee Allison Black Mountain NC 501 9 F 7 1-19 38:45.6 12:28/M
51 Mara Stout Fairview NC 285 7 F 8 1-19 38:53.1 12:30/M
52 Melissa Stout Fairview NC 610 36 F 3 30-39 38:55.7 12:31/M
53 Jaime Goodwin Swannanoa NC 550 40 F 4 40-49 39:04.9 12:34/M
54 Savannah Creasman Black Mountain NC 270 9 F 9 1-19 39:13.4 12:37/M
55 Taylor Marie Goodwin Swannanoa NC 551 8 F 10 1-19 39:20.4 12:39/M
56 Laura Walls Black Mountain NC 616 63 F 2 60-99 41:04.1 13:12/M
57 Angela Brown Green Mountain NC 520 27 F 3 20-29 41:18.7 13:17/M
58 Piper Berry Black Mountain NC 516 10 F 11 1-19 41:50.0 13:27/M
59 Lila Counce Black Mountain NC 536 11 F 12 1-19 41:50.9 13:27/M
60 Haiden Jellison Black Mountain NC 566 9 M 19 1-19 43:20.2 13:56/M
61 Jackson Jones Black Mountain NC 567 9 M 20 1-19 43:23.0 13:57/M
62 Maddie Hancock Black Mountain NC 557 8 F 13 1-19 43:53.4 14:07/M
63 Robert Hancock Black Mountain NC 558 42 M 7 40-49 43:59.6 14:09/M
64 Lily Berry Black Mountain NC 515 7 F 14 1-19 44:29.7 14:18/M
65 Amy Berry Black Mountain NC 514 37 F 4 30-39 44:30.7 14:19/M
66 Daniel Shirk Black Mountain NC 607 8 M 21 1-19 45:26.0 14:37/M
67 Crystal Shirk Black Mountain NC 606 37 F 5 30-39 45:30.5 14:38/M
68 Ian Shirk Black Mountain NC 608 9 M 22 1-19 45:35.8 14:39/M
69 Taylor Cook Black Mountain NC 534 10 M 23 1-19 45:49.5 14:44/M
70 Semia Ostrover Black Mountain NC 590 44 F 5 40-49 45:56.5 14:46/M
71 Jack Gibbon Black Mountain NC 548 6 M 24 1-19 46:57.6 15:06/M
72 Andy Gibbon Black Mountain NC 546 37 M 4 30-39 46:58.6 15:06/M
73 Liam Robertson Swannanoa NC 598 6 M 25 1-19 47:45.4 15:21/M
74 Sheri Robertson Swannanoa NC 599 39 F 6 30-39 47:46.3 15:22/M
75 Randy Schmitz Black Mountain NC 603 8 M 26 1-19 48:06.0 15:28/M
76 Carrie Schmitz Black Mountain NC 602 42 F 6 40-49 48:11.2 15:30/M
77 Madison Eldridge Black Mountain NC 541 9 F 15 1-19 48:33.4 15:37/M
78 Rip Counce Black Mountain NC 537 9 M 27 1-19 48:34.7 15:37/M
79 Will Allison Black Mountain NC 504 36 M 5 30-39 48:48.9 15:41/M
80 Linda Allison Black Mountain NC 502 68 F 3 60-99 48:50.4 15:42/M
81 Cristina Granger Black Mountain NC 552 6 F 16 1-19 49:07.7 15:48/M
82 Katherine Counce Black Mountain NC 535 44 F 7 40-49 49:12.0 15:49/M
83 Kimberly Morris Black Mountain NC 587 23 F 4 20-29 49:33.6 15:56/M
84 Gabby Sawyer Marshall NC 600 14 F 17 1-19 50:12.4 16:08/M
85 Sheena Sawyer Marshall NC 601 57 F 1 50-59 50:36.3 16:16/M
86 Ashley Kuykendall Arden NC 572 38 F 7 30-39 51:55.5 16:42/M
87 Kyle Kuykendall Arden NC 573 45 M 8 40-49 51:57.8 16:42/M
88 Hannah Hunter Asheville NC 563 26 F 5 20-29 52:17.9 16:49/M
89 Tyler Hunter Asheville NC 564 28 M 3 20-29 52:19.4 16:49/M
90 Kim Bowman Candler NC 519 58 M 1 50-59 53:54.5 17:20/M
91 Lee McKinney Asheville NC 580 43 M 9 40-49 53:56.4 17:21/M
92 Cindy Bowman Candler NC 517 59 F 2 50-59 54:05.9 17:23/M
93 Stephanie Jones Black Mountain NC 568 45 F 8 40-49 54:08.0 17:24/M
94 Nora Nelson Black Mountain NC 588 35 F 8 30-39 54:28.2 17:31/M
95 Ashley McKinney Asheville NC 579 33 F 9 30-39 54:57.6 17:40/M
96 Lucy Gibbon Black Mountain NC 549 8 F 18 1-19 56:44.4 18:15/M
97 Ashley Gibbon Black Mountain NC 547 39 F 10 30-39 56:45.7 18:15/M
98 Emilee Hanna Arden NC 560 11 F 19 1-19 56:48.3 18:16/M
99 Evelyn Croley Ashville NC 623 11 F 20 1-19 56:48.7 18:16/M
100 Emma Arrington Black Mountain NC 508 5 F 21 1-19 58:57.6 18:57/M
 
Place Name City Bib No Age Gender Age Group Total Time Pace
101 Kristen Arrington Black Mountain NC 509 29 F 6 20-29 58:59.3 18:58/M
102 Hunter Griffin Black Mountain NC 554 6 M 28 1-19 59:50.9 19:14/M
103 Danielle Griffin Black Mountain NC 553 49 F 9 40-49 1:00:09.4 19:20/M
104 Gayle Burgin Black Mountain NC 527 26 F 7 20-29 1:00:23.3 19:25/M
105 Gregg Sandra Black Mountain NC 621 57 F 3 50-59 1:00:25.6 19:26/M
106 Susan Catlin-Snow Fairview NC 531 56 F 4 50-59 1:00:28.4 19:27/M
107 Deborah Kubiak Asheville NC 571 63 F 4 60-99 1:00:29.1 19:27/M